createdAt,value
2022-08-05T00:00:53.887Z,96791.84
2022-08-05T00:06:05.728Z,96785.06
2022-08-05T00:11:23.820Z,96789.47
2022-08-05T00:16:52.466Z,96779.31
2022-08-05T00:21:55.554Z,96778.84
2022-08-05T00:26:57.365Z,96778.03
2022-08-05T00:32:13.012Z,96774.00
2022-08-05T00:37:16.960Z,96772.94
2022-08-05T00:42:39.966Z,96761.66
2022-08-05T00:47:56.409Z,96769.41
2022-08-05T00:52:59.336Z,96767.16
2022-08-05T00:58:01.684Z,96764.66
2022-08-05T01:03:07.978Z,96758.63
2022-08-05T01:08:41.364Z,96757.88
2022-08-05T01:14:00.109Z,96761.75
2022-08-05T01:19:16.089Z,96755.06
2022-08-05T01:24:49.962Z,96756.63
2022-08-05T01:29:56.516Z,96748.59
2022-08-05T01:35:10.370Z,96757.59
2022-08-05T01:40:17.981Z,96763.47
2022-08-05T01:45:20.954Z,96759.88
2022-08-05T01:50:53.042Z,96756.97
2022-08-05T01:55:59.844Z,96754.94
2022-08-05T02:01:07.041Z,96761.66
2022-08-05T02:06:24.228Z,96754.31
2022-08-05T02:11:52.299Z,96754.09
2022-08-05T02:17:00.102Z,96777.59
2022-08-05T02:22:25.497Z,96771.91
2022-08-05T02:27:59.483Z,96766.66
2022-08-05T02:32:55.505Z,96768.72
2022-08-05T02:38:00.336Z,96763.44
2022-08-05T02:43:07.312Z,96764.56
2022-08-05T02:48:12.898Z,96753.25
2022-08-05T02:53:19.136Z,96757.00
2022-08-05T02:58:22.267Z,96752.50
2022-08-05T03:03:26.308Z,96756.91
2022-08-05T03:08:29.824Z,96751.97
2022-08-05T03:13:52.047Z,96760.16
2022-08-05T03:18:53.618Z,96756.66
2022-08-05T03:23:57.770Z,96751.44
2022-08-05T03:29:00.290Z,96752.16
2022-08-05T03:34:04.396Z,96758.78
2022-08-05T03:39:07.880Z,96773.06
2022-08-05T03:44:11.653Z,96764.69
2022-08-05T03:49:14.971Z,96765.47
2022-08-05T03:55:51.580Z,96770.69
2022-08-05T03:59:56.183Z,96768.72
2022-08-05T04:04:59.818Z,96781.72
2022-08-05T04:10:03.224Z,96773.13
2022-08-05T04:15:05.841Z,96760.94
2022-08-05T04:20:21.110Z,96772.84
2022-08-05T04:25:56.673Z,96767.78
2022-08-05T04:30:48.323Z,96769.88
2022-08-05T04:36:15.789Z,96772.66
2022-08-05T04:41:12.249Z,96788.56
2022-08-05T04:46:13.977Z,96802.59
2022-08-05T04:51:30.377Z,96796.56
2022-08-05T04:56:36.792Z,96807.56
2022-08-05T05:02:07.692Z,96804.44
2022-08-05T05:07:00.337Z,96814.16
2022-08-05T05:12:04.518Z,96820.28
2022-08-05T05:17:09.311Z,96822.53
2022-08-05T05:22:24.152Z,96823.97
2022-08-05T05:27:44.567Z,96824.41
2022-08-05T05:32:47.932Z,96826.94
2022-08-05T05:38:00.348Z,96830.00
2022-08-05T05:43:03.637Z,96819.34
2022-08-05T05:48:08.870Z,96835.34
2022-08-05T05:53:22.212Z,96835.94
2022-08-05T05:58:30.320Z,96833.19
2022-08-05T06:03:54.128Z,96840.44
2022-08-05T06:08:55.765Z,96844.59
2022-08-05T06:13:57.867Z,96844.38
2022-08-05T06:19:05.886Z,96839.28
2022-08-05T06:24:11.458Z,96837.81
2022-08-05T06:29:25.329Z,96839.88
2022-08-05T06:34:35.721Z,96848.28
2022-08-05T06:39:39.316Z,96860.34
2022-08-05T06:44:43.476Z,96865.91
2022-08-05T06:50:01.948Z,96864.56
2022-08-05T06:55:07.838Z,96867.53
2022-08-05T07:00:10.483Z,96880.78
2022-08-05T07:05:18.940Z,96879.97
2022-08-05T07:10:21.963Z,96884.88
2022-08-05T07:16:01.782Z,96908.75
2022-08-05T07:21:07.005Z,96922.59
2022-08-05T07:26:11.130Z,96940.50
2022-08-05T07:31:15.682Z,96966.44
2022-08-05T07:36:20.772Z,96927.19
2022-08-05T07:42:14.449Z,96918.75
2022-08-05T07:46:48.275Z,96951.69
2022-08-05T07:51:54.317Z,96968.13
2022-08-05T07:57:14.012Z,96975.78
2022-08-05T08:02:26.777Z,96974.56
2022-08-05T08:07:59.133Z,96970.31
2022-08-05T08:12:55.118Z,96975.78
2022-08-05T08:18:01.990Z,96967.31
2022-08-05T08:23:04.787Z,96972.78
2022-08-05T08:28:06.566Z,96986.00
2022-08-05T08:33:20.017Z,96984.72
2022-08-05T08:38:32.312Z,96990.25
2022-08-05T08:45:19.741Z,96989.78
2022-08-05T08:50:05.697Z,97006.88
2022-08-05T08:54:27.337Z,97006.66
2022-08-05T08:59:33.553Z,97016.81
2022-08-05T09:04:57.843Z,97013.38
2022-08-05T09:09:59.595Z,97022.72
2022-08-05T09:15:05.708Z,97039.59
2022-08-05T09:20:09.229Z,97032.09
2022-08-05T09:25:13.855Z,97034.56
2022-08-05T09:30:25.987Z,97030.53
2022-08-05T09:35:28.276Z,97045.97
2022-08-05T09:40:36.210Z,97048.50
2022-08-05T09:46:06.497Z,97042.44
2022-08-05T09:51:14.830Z,97053.34
2022-08-05T09:56:29.231Z,97053.34
2022-08-05T10:01:36.852Z,97046.94
2022-08-05T10:06:54.810Z,97044.94
2022-08-05T10:12:29.986Z,97036.56
2022-08-05T10:17:37.283Z,97031.72
2022-08-05T10:22:43.030Z,97028.56
2022-08-05T10:28:12.821Z,97029.38
2022-08-05T10:33:18.307Z,97040.63
2022-08-05T10:38:23.048Z,97029.34
2022-08-05T10:43:48.836Z,97046.75
2022-08-05T10:49:01.450Z,97037.88
2022-08-05T10:54:23.083Z,97026.97
2022-08-05T11:00:02.127Z,97034.66
2022-08-05T11:04:55.180Z,97024.56
2022-08-05T11:10:04.131Z,97026.56
2022-08-05T11:16:01.008Z,97012.41
2022-08-05T11:20:53.275Z,97009.94
2022-08-05T11:26:09.935Z,97009.97
2022-08-05T11:31:11.827Z,97009.22
2022-08-05T11:36:44.331Z,97001.06
2022-08-05T11:42:01.755Z,97010.28
2022-08-05T11:47:14.242Z,96999.28
2022-08-05T11:52:29.338Z,97013.78
2022-08-05T11:58:08.660Z,96999.56
2022-08-05T12:02:53.767Z,96993.47
2022-08-05T12:08:10.271Z,96999.97
2022-08-05T12:13:47.650Z,97000.63
2022-08-05T12:18:52.739Z,96989.22
2022-08-05T12:24:00.378Z,96994.91
2022-08-05T12:29:09.243Z,96993.84
2022-08-05T12:34:20.716Z,96972.25
2022-08-05T12:39:34.355Z,96965.47
2022-08-05T12:44:40.875Z,96966.91
2022-08-05T12:50:04.070Z,96969.66
2022-08-05T12:55:25.216Z,96962.28
2022-08-05T13:02:05.684Z,96957.31
2022-08-05T13:05:54.883Z,96959.31
2022-08-05T13:11:02.092Z,96941.91
2022-08-05T13:16:11.382Z,96929.53
2022-08-05T13:21:13.082Z,96925.56
2022-08-05T13:26:15.474Z,96926.50
2022-08-05T13:31:17.971Z,96919.44
2022-08-05T13:36:36.426Z,96904.41
2022-08-05T13:41:38.329Z,96900.94
2022-08-05T13:47:02.371Z,96900.28
2022-08-05T13:52:13.511Z,96905.78
2022-08-05T13:57:15.600Z,96898.84
2022-08-05T14:02:19.938Z,96905.34
2022-08-05T14:08:00.249Z,96904.09
2022-08-05T14:12:48.640Z,96900.84
2022-08-05T14:17:50.758Z,96894.16
2022-08-05T14:23:00.515Z,96886.34
2022-08-05T14:28:02.269Z,96879.69
2022-08-05T14:33:04.719Z,96866.31
2022-08-05T14:38:06.753Z,96870.44
2022-08-05T14:44:02.361Z,96858.81
2022-08-05T14:48:50.191Z,96853.41
2022-08-05T14:54:27.601Z,96844.50
2022-08-05T14:59:14.649Z,96837.25
2022-08-05T15:04:20.293Z,96827.31
2022-08-05T15:09:51.618Z,96816.81
2022-08-05T15:14:49.580Z,96819.22
2022-08-05T15:19:52.114Z,96822.88
2022-08-05T15:24:58.986Z,96821.75
2022-08-05T15:30:10.758Z,96824.53
2022-08-05T15:35:16.106Z,96843.19
2022-08-05T15:41:03.072Z,96844.44
2022-08-05T15:45:45.720Z,96840.25
2022-08-05T15:50:47.993Z,96844.94
2022-08-05T15:56:01.945Z,96843.78
2022-08-05T16:01:17.358Z,96854.06
2022-08-05T16:06:20.928Z,96840.41
2022-08-05T16:11:42.713Z,96850.53
2022-08-05T16:16:47.121Z,96848.63
2022-08-05T16:21:58.844Z,96850.63
2022-08-05T16:27:04.030Z,96852.84
2022-08-05T16:32:09.925Z,96855.50
2022-08-05T16:38:03.147Z,96859.00
2022-08-05T16:42:34.635Z,96853.47
2022-08-05T16:47:48.424Z,96855.66
2022-08-05T16:52:56.471Z,96861.19
2022-08-05T16:58:01.276Z,96856.16
2022-08-05T17:03:15.450Z,96861.09
2022-08-05T17:08:36.252Z,96867.31
2022-08-05T17:13:47.341Z,96860.53
2022-08-05T17:18:49.886Z,96874.38
2022-08-05T17:24:05.054Z,96873.63
2022-08-05T17:29:10.400Z,96863.94
2022-08-05T17:34:12.165Z,96862.34
2022-08-05T17:39:23.873Z,96861.19
2022-08-05T17:44:32.348Z,96863.63
2022-08-05T17:49:59.739Z,96861.69
2022-08-05T17:54:56.125Z,96878.34
2022-08-05T18:00:03.717Z,96875.72
2022-08-05T18:05:08.269Z,96875.09
2022-08-05T18:10:20.278Z,96877.59
2022-08-05T18:15:24.333Z,96879.94
2022-08-05T18:20:29.663Z,96885.53
2022-08-05T18:25:34.235Z,96891.94
2022-08-05T18:30:38.901Z,96888.59
2022-08-05T18:36:00.876Z,96883.53
2022-08-05T18:41:53.691Z,96896.25
2022-08-05T18:46:29.069Z,96907.94
2022-08-05T18:52:05.767Z,96907.16
2022-08-05T18:57:15.525Z,96923.16
2022-08-05T19:02:28.299Z,96926.78
2022-08-05T19:07:45.286Z,96925.56
2022-08-05T19:12:48.679Z,96926.84
2022-08-05T19:17:59.892Z,96931.34
2022-08-05T19:23:22.601Z,96937.00
2022-08-05T19:28:34.678Z,96944.25
2022-08-05T19:33:38.073Z,96957.97
2022-08-05T19:38:43.767Z,96964.41
2022-08-05T19:44:06.792Z,96989.38
2022-08-05T19:49:07.915Z,97022.44
2022-08-05T19:54:21.837Z,97040.63
2022-08-05T20:00:00.522Z,97022.00
2022-08-05T20:04:55.383Z,97043.28
2022-08-05T20:10:00.412Z,97048.66
2022-08-05T20:15:02.169Z,97043.59
2022-08-05T20:20:09.493Z,97068.41
2022-08-05T20:25:12.927Z,97101.69
2022-08-05T20:30:14.968Z,97134.22
2022-08-05T20:35:20.197Z,97158.22
2022-08-05T20:40:21.870Z,97153.25
2022-08-05T20:45:23.957Z,97142.84
2022-08-05T20:50:46.916Z,97159.97
2022-08-05T20:55:56.593Z,97178.31
2022-08-05T21:01:10.626Z,97222.78
2022-08-05T21:06:28.434Z,97242.97
2022-08-05T21:12:08.990Z,97254.84
2022-08-05T21:16:53.430Z,97261.19
2022-08-05T21:21:55.250Z,97283.09
2022-08-05T21:26:58.687Z,97276.06
2022-08-05T21:32:04.427Z,97253.91
2022-08-05T21:37:08.133Z,97253.47
2022-08-05T21:42:19.770Z,97268.41
2022-08-05T21:47:56.846Z,97269.13
2022-08-05T21:52:58.576Z,97269.38
2022-08-05T21:58:01.685Z,97275.19
2022-08-05T22:03:05.289Z,97296.53
2022-08-05T22:08:07.151Z,97315.63
2022-08-05T22:14:32.384Z,97309.50
2022-08-05T22:18:49.113Z,97310.63
2022-08-05T22:24:39.421Z,97309.00
2022-08-05T22:29:32.933Z,97306.50
2022-08-05T22:34:34.951Z,97299.03
2022-08-05T22:39:38.135Z,97314.16
2022-08-05T22:44:47.050Z,97313.19
2022-08-05T22:50:19.230Z,97329.75
2022-08-05T22:55:18.598Z,97359.38
2022-08-05T23:00:23.599Z,97389.19
2022-08-05T23:05:25.354Z,97398.38
2022-08-05T23:10:27.038Z,97387.31
2022-08-05T23:15:35.232Z,97392.44
2022-08-05T23:20:38.029Z,97390.38
2022-08-05T23:25:54.661Z,97400.84
2022-08-05T23:31:16.297Z,97405.03
2022-08-05T23:36:19.499Z,97408.09
2022-08-05T23:41:21.262Z,97407.13
2022-08-05T23:46:23.685Z,97419.59
2022-08-05T23:51:25.407Z,97424.91
2022-08-05T23:56:27.778Z,97444.25
